sensor_id;sensor_type;location;lat;lon;timestamp;temperature;humidity
15143;DHT22;7672;50.834;6.286;2022-11-20T00:01:30;5.80;99.90
15143;DHT22;7672;50.834;6.286;2022-11-20T00:03:58;6.50;99.90
15143;DHT22;7672;50.834;6.286;2022-11-20T00:06:27;6.50;99.90
15143;DHT22;7672;50.834;6.286;2022-11-20T00:08:58;6.30;99.90
15143;DHT22;7672;50.834;6.286;2022-11-20T00:11:30;6.60;99.90
15143;DHT22;7672;50.834;6.286;2022-11-20T00:14:00;6.60;99.90
15143;DHT22;7672;50.834;6.286;2022-11-20T00:16:29;5.90;99.90
15143;DHT22;7672;50.834;6.286;2022-11-20T00:18:58;6.60;99.90
15143;DHT22;7672;50.834;6.286;2022-11-20T00:21:26;6.60;99.90
15143;DHT22;7672;50.834;6.286;2022-11-20T00:23:55;6.60;99.90
15143;DHT22;7672;50.834;6.286;2022-11-20T00:26:24;6.60;99.90
15143;DHT22;7672;50.834;6.286;2022-11-20T00:28:54;6.60;99.90
15143;DHT22;7672;50.834;6.286;2022-11-20T00:31:24;6.60;99.90
15143;DHT22;7672;50.834;6.286;2022-11-20T00:33:51;6.60;99.90
15143;DHT22;7672;50.834;6.286;2022-11-20T00:36:24;6.50;99.90
15143;DHT22;7672;50.834;6.286;2022-11-20T00:38:53;6.50;99.90
15143;DHT22;7672;50.834;6.286;2022-11-20T00:41:22;6.50;99.90
15143;DHT22;7672;50.834;6.286;2022-11-20T00:43:52;6.50;99.90
15143;DHT22;7672;50.834;6.286;2022-11-20T00:46:22;6.50;99.90
15143;DHT22;7672;50.834;6.286;2022-11-20T00:48:50;6.20;99.90
15143;DHT22;7672;50.834;6.286;2022-11-20T00:51:22;6.50;99.90
15143;DHT22;7672;50.834;6.286;2022-11-20T00:53:50;6.00;99.90
15143;DHT22;7672;50.834;6.286;2022-11-20T00:56:25;6.50;99.90
15143;DHT22;7672;50.834;6.286;2022-11-20T00:58:52;6.40;99.90
15143;DHT22;7672;50.834;6.286;2022-11-20T01:01:46;6.40;99.90
15143;DHT22;7672;50.834;6.286;2022-11-20T01:04:14;6.20;99.90
15143;DHT22;7672;50.834;6.286;2022-11-20T01:06:41;6.50;99.90
15143;DHT22;7672;50.834;6.286;2022-11-20T01:09:11;6.40;99.90
15143;DHT22;7672;50.834;6.286;2022-11-20T01:11:42;5.70;99.90
15143;DHT22;7672;50.834;6.286;2022-11-20T01:14:14;6.50;99.90
15143;DHT22;7672;50.834;6.286;2022-11-20T01:16:46;6.50;99.90
15143;DHT22;7672;50.834;6.286;2022-11-20T01:19:19;6.50;99.90
15143;DHT22;7672;50.834;6.286;2022-11-20T01:21:50;6.60;99.90
15143;DHT22;7672;50.834;6.286;2022-11-20T01:24:20;6.60;99.90
15143;DHT22;7672;50.834;6.286;2022-11-20T01:26:49;7.70;99.90
15143;DHT22;7672;50.834;6.286;2022-11-20T01:29:20;6.60;99.90
15143;DHT22;7672;50.834;6.286;2022-11-20T01:31:50;6.60;99.90
15143;DHT22;7672;50.834;6.286;2022-11-20T01:34:20;6.70;99.90
15143;DHT22;7672;50.834;6.286;2022-11-20T01:36:50;6.60;99.90
15143;DHT22;7672;50.834;6.286;2022-11-20T01:39:21;6.70;99.90
15143;DHT22;7672;50.834;6.286;2022-11-20T01:41:51;6.00;99.90
15143;DHT22;7672;50.834;6.286;2022-11-20T01:44:56;6.20;99.90
15143;DHT22;7672;50.834;6.286;2022-11-20T01:47:37;6.80;99.90
15143;DHT22;7672;50.834;6.286;2022-11-20T01:50:21;6.70;99.90
15143;DHT22;7672;50.834;6.286;2022-11-20T01:52:56;6.70;99.90
15143;DHT22;7672;50.834;6.286;2022-11-20T01:55:30;7.60;99.90
15143;DHT22;7672;50.834;6.286;2022-11-20T01:57:59;6.70;99.90
15143;DHT22;7672;50.834;6.286;2022-11-20T02:00:28;6.70;99.90
15143;DHT22;7672;50.834;6.286;2022-11-20T02:03:01;6.60;99.90
15143;DHT22;7672;50.834;6.286;2022-11-20T02:05:45;6.60;99.90
15143;DHT22;7672;50.834;6.286;2022-11-20T02:08:15;6.60;99.90
15143;DHT22;7672;50.834;6.286;2022-11-20T02:10:44;6.60;99.90
15143;DHT22;7672;50.834;6.286;2022-11-20T02:13:18;6.50;99.90
15143;DHT22;7672;50.834;6.286;2022-11-20T02:16:04;6.60;99.90
15143;DHT22;7672;50.834;6.286;2022-11-20T02:18:34;6.60;99.90
15143;DHT22;7672;50.834;6.286;2022-11-20T02:21:07;6.70;99.90
15143;DHT22;7672;50.834;6.286;2022-11-20T02:23:55;6.60;99.90
15143;DHT22;7672;50.834;6.286;2022-11-20T02:26:26;6.60;99.90
15143;DHT22;7672;50.834;6.286;2022-11-20T02:28:57;6.60;99.90
15143;DHT22;7672;50.834;6.286;2022-11-20T02:31:25;6.60;99.90
15143;DHT22;7672;50.834;6.286;2022-11-20T02:33:58;6.70;99.90
15143;DHT22;7672;50.834;6.286;2022-11-20T02:36:27;6.70;99.90
15143;DHT22;7672;50.834;6.286;2022-11-20T02:38:56;6.70;99.90
15143;DHT22;7672;50.834;6.286;2022-11-20T02:41:31;6.70;99.90
15143;DHT22;7672;50.834;6.286;2022-11-20T02:43:59;6.70;99.90
15143;DHT22;7672;50.834;6.286;2022-11-20T02:46:27;6.70;99.90
15143;DHT22;7672;50.834;6.286;2022-11-20T02:48:53;6.60;99.90
15143;DHT22;7672;50.834;6.286;2022-11-20T02:51:20;6.60;99.90
15143;DHT22;7672;50.834;6.286;2022-11-20T02:53:47;6.70;99.90
15143;DHT22;7672;50.834;6.286;2022-11-20T02:56:14;6.70;99.90
15143;DHT22;7672;50.834;6.286;2022-11-20T02:58:41;6.70;99.90
15143;DHT22;7672;50.834;6.286;2022-11-20T03:01:08;6.50;99.90
15143;DHT22;7672;50.834;6.286;2022-11-20T03:03:35;6.40;99.90
15143;DHT22;7672;50.834;6.286;2022-11-20T03:06:02;5.90;99.90
15143;DHT22;7672;50.834;6.286;2022-11-20T03:08:29;6.70;99.90
15143;DHT22;7672;50.834;6.286;2022-11-20T03:10:56;6.70;99.90
15143;DHT22;7672;50.834;6.286;2022-11-20T03:13:24;6.70;99.90
15143;DHT22;7672;50.834;6.286;2022-11-20T03:15:51;6.70;99.90
15143;DHT22;7672;50.834;6.286;2022-11-20T03:18:18;7.10;99.90
15143;DHT22;7672;50.834;6.286;2022-11-20T03:20:44;6.70;99.90
15143;DHT22;7672;50.834;6.286;2022-11-20T03:23:11;6.70;99.90
15143;DHT22;7672;50.834;6.286;2022-11-20T03:25:38;7.40;99.90
15143;DHT22;7672;50.834;6.286;2022-11-20T03:28:05;6.80;99.90
15143;DHT22;7672;50.834;6.286;2022-11-20T03:30:32;6.80;99.90
15143;DHT22;7672;50.834;6.286;2022-11-20T03:32:58;6.80;99.90
15143;DHT22;7672;50.834;6.286;2022-11-20T03:35:26;6.80;99.90
15143;DHT22;7672;50.834;6.286;2022-11-20T03:37:52;6.80;99.90
15143;DHT22;7672;50.834;6.286;2022-11-20T03:40:19;6.80;99.90
15143;DHT22;7672;50.834;6.286;2022-11-20T03:42:46;6.90;99.90
15143;DHT22;7672;50.834;6.286;2022-11-20T03:45:17;6.90;99.90
15143;DHT22;7672;50.834;6.286;2022-11-20T03:47:45;7.00;99.90
15143;DHT22;7672;50.834;6.286;2022-11-20T03:50:12;6.90;99.90
15143;DHT22;7672;50.834;6.286;2022-11-20T03:52:40;7.00;99.90
15143;DHT22;7672;50.834;6.286;2022-11-20T03:55:08;7.00;99.90
15143;DHT22;7672;50.834;6.286;2022-11-20T03:57:35;7.00;99.90
15143;DHT22;7672;50.834;6.286;2022-11-20T04:00:03;7.10;99.90
15143;DHT22;7672;50.834;6.286;2022-11-20T04:02:31;7.10;99.90
15143;DHT22;7672;50.834;6.286;2022-11-20T04:04:58;7.10;99.90
15143;DHT22;7672;50.834;6.286;2022-11-20T04:07:25;7.20;99.90
15143;DHT22;7672;50.834;6.286;2022-11-20T04:09:51;7.20;99.90
15143;DHT22;7672;50.834;6.286;2022-11-20T04:12:18;5.90;99.90
15143;DHT22;7672;50.834;6.286;2022-11-20T04:14:45;7.20;99.90
15143;DHT22;7672;50.834;6.286;2022-11-20T04:17:12;7.20;99.90
15143;DHT22;7672;50.834;6.286;2022-11-20T04:19:38;7.20;99.90
15143;DHT22;7672;50.834;6.286;2022-11-20T04:22:05;7.30;99.90
15143;DHT22;7672;50.834;6.286;2022-11-20T04:24:35;7.40;99.90
15143;DHT22;7672;50.834;6.286;2022-11-20T04:27:02;7.00;99.90
15143;DHT22;7672;50.834;6.286;2022-11-20T04:29:29;7.30;99.90
15143;DHT22;7672;50.834;6.286;2022-11-20T04:31:56;7.30;99.90
15143;DHT22;7672;50.834;6.286;2022-11-20T04:34:23;7.30;99.90
15143;DHT22;7672;50.834;6.286;2022-11-20T04:36:50;7.30;99.90
15143;DHT22;7672;50.834;6.286;2022-11-20T04:39:16;7.30;99.90
15143;DHT22;7672;50.834;6.286;2022-11-20T04:41:44;7.40;99.90
15143;DHT22;7672;50.834;6.286;2022-11-20T04:44:11;6.90;99.90
15143;DHT22;7672;50.834;6.286;2022-11-20T04:46:40;7.40;99.90
15143;DHT22;7672;50.834;6.286;2022-11-20T04:49:09;7.30;99.90
15143;DHT22;7672;50.834;6.286;2022-11-20T04:51:37;7.40;99.90
15143;DHT22;7672;50.834;6.286;2022-11-20T04:54:08;7.40;99.90
15143;DHT22;7672;50.834;6.286;2022-11-20T04:56:37;8.10;99.90
15143;DHT22;7672;50.834;6.286;2022-11-20T04:59:04;7.40;99.90
15143;DHT22;7672;50.834;6.286;2022-11-20T05:01:31;8.40;99.90
15143;DHT22;7672;50.834;6.286;2022-11-20T05:03:59;7.40;99.90
15143;DHT22;7672;50.834;6.286;2022-11-20T05:06:28;7.40;99.90
15143;DHT22;7672;50.834;6.286;2022-11-20T05:08:55;7.70;99.90
15143;DHT22;7672;50.834;6.286;2022-11-20T05:11:22;8.30;99.90
15143;DHT22;7672;50.834;6.286;2022-11-20T05:13:51;7.40;99.90
15143;DHT22;7672;50.834;6.286;2022-11-20T05:16:22;7.40;99.90
15143;DHT22;7672;50.834;6.286;2022-11-20T05:18:52;8.80;99.90
15143;DHT22;7672;50.834;6.286;2022-11-20T05:21:23;7.40;99.90
15143;DHT22;7672;50.834;6.286;2022-11-20T05:23:50;7.40;99.90
15143;DHT22;7672;50.834;6.286;2022-11-20T05:26:19;7.40;99.90
15143;DHT22;7672;50.834;6.286;2022-11-20T05:28:51;7.40;99.90
15143;DHT22;7672;50.834;6.286;2022-11-20T05:31:20;8.60;99.90
15143;DHT22;7672;50.834;6.286;2022-11-20T05:33:55;7.40;99.90
15143;DHT22;7672;50.834;6.286;2022-11-20T05:36:23;7.40;99.90
15143;DHT22;7672;50.834;6.286;2022-11-20T05:38:51;7.40;99.90
15143;DHT22;7672;50.834;6.286;2022-11-20T05:41:25;7.80;99.90
15143;DHT22;7672;50.834;6.286;2022-11-20T05:43:52;7.50;99.90
15143;DHT22;7672;50.834;6.286;2022-11-20T05:46:20;7.40;99.90
15143;DHT22;7672;50.834;6.286;2022-11-20T05:48:55;6.80;99.90
15143;DHT22;7672;50.834;6.286;2022-11-20T05:51:26;7.40;99.90
15143;DHT22;7672;50.834;6.286;2022-11-20T05:53:55;7.40;99.90
15143;DHT22;7672;50.834;6.286;2022-11-20T05:56:23;7.50;99.90
15143;DHT22;7672;50.834;6.286;2022-11-20T05:58:49;8.20;99.90
15143;DHT22;7672;50.834;6.286;2022-11-20T06:01:20;8.80;99.90
15143;DHT22;7672;50.834;6.286;2022-11-20T06:03:49;7.90;99.90
15143;DHT22;7672;50.834;6.286;2022-11-20T06:06:18;7.50;99.90
15143;DHT22;7672;50.834;6.286;2022-11-20T06:08:46;7.30;99.90
15143;DHT22;7672;50.834;6.286;2022-11-20T06:11:14;7.50;99.90
15143;DHT22;7672;50.834;6.286;2022-11-20T06:13:41;6.60;99.90
15143;DHT22;7672;50.834;6.286;2022-11-20T06:16:10;7.50;99.90
15143;DHT22;7672;50.834;6.286;2022-11-20T06:18:39;7.50;99.90
15143;DHT22;7672;50.834;6.286;2022-11-20T06:23:42;6.70;99.90
15143;DHT22;7672;50.834;6.286;2022-11-20T06:26:23;7.00;99.90
15143;DHT22;7672;50.834;6.286;2022-11-20T06:28:53;7.40;99.90
15143;DHT22;7672;50.834;6.286;2022-11-20T06:31:24;7.10;99.90
15143;DHT22;7672;50.834;6.286;2022-11-20T06:33:52;8.40;99.90
15143;DHT22;7672;50.834;6.286;2022-11-20T06:36:21;7.30;99.90
15143;DHT22;7672;50.834;6.286;2022-11-20T06:38:49;7.40;99.90
15143;DHT22;7672;50.834;6.286;2022-11-20T06:41:19;7.70;99.90
15143;DHT22;7672;50.834;6.286;2022-11-20T06:43:47;7.40;99.90
15143;DHT22;7672;50.834;6.286;2022-11-20T06:46:15;7.40;99.90
15143;DHT22;7672;50.834;6.286;2022-11-20T06:48:47;7.40;99.90
15143;DHT22;7672;50.834;6.286;2022-11-20T06:51:15;7.50;99.90
15143;DHT22;7672;50.834;6.286;2022-11-20T06:53:42;7.40;99.90
15143;DHT22;7672;50.834;6.286;2022-11-20T06:56:09;7.40;99.90
15143;DHT22;7672;50.834;6.286;2022-11-20T06:58:36;7.70;99.90
15143;DHT22;7672;50.834;6.286;2022-11-20T07:01:11;7.40;99.90
15143;DHT22;7672;50.834;6.286;2022-11-20T07:03:42;7.40;99.90
15143;DHT22;7672;50.834;6.286;2022-11-20T07:06:09;7.50;99.90
15143;DHT22;7672;50.834;6.286;2022-11-20T07:08:37;8.50;99.90
15143;DHT22;7672;50.834;6.286;2022-11-20T07:11:06;8.60;99.90
15143;DHT22;7672;50.834;6.286;2022-11-20T07:13:35;7.30;99.90
15143;DHT22;7672;50.834;6.286;2022-11-20T07:16:04;7.50;99.90
15143;DHT22;7672;50.834;6.286;2022-11-20T07:18:33;7.40;99.90
15143;DHT22;7672;50.834;6.286;2022-11-20T07:21:09;7.40;99.90
15143;DHT22;7672;50.834;6.286;2022-11-20T07:23:37;7.40;99.90
15143;DHT22;7672;50.834;6.286;2022-11-20T07:26:06;7.30;99.90
15143;DHT22;7672;50.834;6.286;2022-11-20T07:28:35;7.20;99.90
15143;DHT22;7672;50.834;6.286;2022-11-20T07:31:03;7.40;99.90
15143;DHT22;7672;50.834;6.286;2022-11-20T07:33:31;7.40;99.90
15143;DHT22;7672;50.834;6.286;2022-11-20T07:35:59;8.00;99.90
15143;DHT22;7672;50.834;6.286;2022-11-20T07:38:27;7.40;99.90
15143;DHT22;7672;50.834;6.286;2022-11-20T07:40:56;7.40;99.90
15143;DHT22;7672;50.834;6.286;2022-11-20T07:43:28;8.50;99.90
15143;DHT22;7672;50.834;6.286;2022-11-20T07:45:56;7.20;99.90
15143;DHT22;7672;50.834;6.286;2022-11-20T07:48:25;7.20;99.90
15143;DHT22;7672;50.834;6.286;2022-11-20T07:50:56;7.30;99.90
15143;DHT22;7672;50.834;6.286;2022-11-20T07:53:23;8.00;99.90
15143;DHT22;7672;50.834;6.286;2022-11-20T07:55:50;7.60;99.90
15143;DHT22;7672;50.834;6.286;2022-11-20T07:58:20;7.60;99.90
15143;DHT22;7672;50.834;6.286;2022-11-20T08:00:47;7.60;99.90
15143;DHT22;7672;50.834;6.286;2022-11-20T08:03:15;8.60;99.90
15143;DHT22;7672;50.834;6.286;2022-11-20T08:05:50;7.70;99.90
15143;DHT22;7672;50.834;6.286;2022-11-20T08:08:17;7.70;99.90
15143;DHT22;7672;50.834;6.286;2022-11-20T08:10:44;8.30;99.90
15143;DHT22;7672;50.834;6.286;2022-11-20T08:13:13;8.10;99.90
15143;DHT22;7672;50.834;6.286;2022-11-20T08:15:59;8.90;99.90
15143;DHT22;7672;50.834;6.286;2022-11-20T08:18:26;7.50;99.90
15143;DHT22;7672;50.834;6.286;2022-11-20T08:21:02;8.20;99.90
15143;DHT22;7672;50.834;6.286;2022-11-20T08:23:30;7.90;99.90
15143;DHT22;7672;50.834;6.286;2022-11-20T08:25:57;8.10;99.90
15143;DHT22;7672;50.834;6.286;2022-11-20T08:28:25;8.60;99.90
15143;DHT22;7672;50.834;6.286;2022-11-20T08:31:01;7.80;99.90
15143;DHT22;7672;50.834;6.286;2022-11-20T08:33:29;7.80;99.90
15143;DHT22;7672;50.834;6.286;2022-11-20T08:36:00;8.50;99.90
15143;DHT22;7672;50.834;6.286;2022-11-20T08:38:29;7.90;99.90
15143;DHT22;7672;50.834;6.286;2022-11-20T08:41:00;7.90;99.90
15143;DHT22;7672;50.834;6.286;2022-11-20T08:43:47;8.00;99.90
15143;DHT22;7672;50.834;6.286;2022-11-20T08:46:22;8.00;99.90
15143;DHT22;7672;50.834;6.286;2022-11-20T08:48:51;8.00;99.90
15143;DHT22;7672;50.834;6.286;2022-11-20T08:51:20;8.10;99.90
15143;DHT22;7672;50.834;6.286;2022-11-20T08:53:48;8.70;99.90
15143;DHT22;7672;50.834;6.286;2022-11-20T08:56:15;8.20;99.90
15143;DHT22;7672;50.834;6.286;2022-11-20T08:58:44;8.90;99.90
15143;DHT22;7672;50.834;6.286;2022-11-20T09:01:31;8.90;99.90
15143;DHT22;7672;50.834;6.286;2022-11-20T09:04:08;8.20;99.90
15143;DHT22;7672;50.834;6.286;2022-11-20T09:06:35;8.30;99.90
15143;DHT22;7672;50.834;6.286;2022-11-20T09:09:02;8.40;99.90
15143;DHT22;7672;50.834;6.286;2022-11-20T09:11:49;8.30;99.90
15143;DHT22;7672;50.834;6.286;2022-11-20T09:14:17;8.40;99.90
15143;DHT22;7672;50.834;6.286;2022-11-20T09:16:45;9.70;99.90
15143;DHT22;7672;50.834;6.286;2022-11-20T09:19:13;9.50;99.90
15143;DHT22;7672;50.834;6.286;2022-11-20T09:22:00;8.60;99.90
15143;DHT22;7672;50.834;6.286;2022-11-20T09:24:27;9.50;99.90
15143;DHT22;7672;50.834;6.286;2022-11-20T09:26:54;10.10;99.90
15143;DHT22;7672;50.834;6.286;2022-11-20T09:29:31;9.80;99.90
15143;DHT22;7672;50.834;6.286;2022-11-20T09:32:02;9.10;99.90
15143;DHT22;7672;50.834;6.286;2022-11-20T09:34:31;9.00;99.90
15143;DHT22;7672;50.834;6.286;2022-11-20T09:36:58;8.70;99.90
15143;DHT22;7672;50.834;6.286;2022-11-20T09:39:42;8.30;99.90
15143;DHT22;7672;50.834;6.286;2022-11-20T09:45:36;9.30;99.90
15143;DHT22;7672;50.834;6.286;2022-11-20T09:56:39;9.50;99.90
15143;DHT22;7672;50.834;6.286;2022-11-20T10:11:12;9.60;99.90
15143;DHT22;7672;50.834;6.286;2022-11-20T10:19:34;9.70;99.90
15143;DHT22;7672;50.834;6.286;2022-11-20T10:31:50;9.90;99.90
15143;DHT22;7672;50.834;6.286;2022-11-20T10:34:31;9.80;99.90
15143;DHT22;7672;50.834;6.286;2022-11-20T10:37:22;10.10;99.90
15143;DHT22;7672;50.834;6.286;2022-11-20T10:42:40;10.10;99.90
15143;DHT22;7672;50.834;6.286;2022-11-20T10:57:24;10.30;99.90
15143;DHT22;7672;50.834;6.286;2022-11-20T11:00:14;10.30;99.90
15143;DHT22;7672;50.834;6.286;2022-11-20T11:02:50;10.30;99.90
15143;DHT22;7672;50.834;6.286;2022-11-20T11:05:42;10.00;99.90
15143;DHT22;7672;50.834;6.286;2022-11-20T11:08:18;10.00;99.90
15143;DHT22;7672;50.834;6.286;2022-11-20T11:10:53;9.90;99.90
15143;DHT22;7672;50.834;6.286;2022-11-20T11:13:35;10.10;99.90
15143;DHT22;7672;50.834;6.286;2022-11-20T11:16:24;10.00;99.90
15143;DHT22;7672;50.834;6.286;2022-11-20T11:19:06;10.00;99.90
15143;DHT22;7672;50.834;6.286;2022-11-20T11:22:16;9.40;99.90
15143;DHT22;7672;50.834;6.286;2022-11-20T11:24:54;10.30;99.90
15143;DHT22;7672;50.834;6.286;2022-11-20T11:27:21;9.80;99.90
15143;DHT22;7672;50.834;6.286;2022-11-20T11:30:13;10.80;99.90
15143;DHT22;7672;50.834;6.286;2022-11-20T11:32:42;9.80;99.90
15143;DHT22;7672;50.834;6.286;2022-11-20T11:35:27;9.80;99.90
15143;DHT22;7672;50.834;6.286;2022-11-20T11:38:04;9.80;99.90
15143;DHT22;7672;50.834;6.286;2022-11-20T11:40:36;10.20;99.90
15143;DHT22;7672;50.834;6.286;2022-11-20T11:43:16;9.60;99.90
15143;DHT22;7672;50.834;6.286;2022-11-20T11:46:31;9.30;99.90
15143;DHT22;7672;50.834;6.286;2022-11-20T11:54:43;9.90;99.90
15143;DHT22;7672;50.834;6.286;2022-11-20T12:00:14;10.90;99.90
15143;DHT22;7672;50.834;6.286;2022-11-20T12:03:02;9.80;99.90
15143;DHT22;7672;50.834;6.286;2022-11-20T12:05:49;9.90;99.90
15143;DHT22;7672;50.834;6.286;2022-11-20T12:16:41;10.40;99.90
15143;DHT22;7672;50.834;6.286;2022-11-20T12:19:12;9.10;99.90
15143;DHT22;7672;50.834;6.286;2022-11-20T12:22:02;9.90;99.90
15143;DHT22;7672;50.834;6.286;2022-11-20T12:27:35;10.00;99.90
15143;DHT22;7672;50.834;6.286;2022-11-20T12:30:15;10.00;99.90
15143;DHT22;7672;50.834;6.286;2022-11-20T12:38:36;10.00;99.90
15143;DHT22;7672;50.834;6.286;2022-11-20T12:41:19;10.00;99.90
15143;DHT22;7672;50.834;6.286;2022-11-20T12:51:00;10.00;99.90
15143;DHT22;7672;50.834;6.286;2022-11-20T13:00:09;10.10;99.90
15143;DHT22;7672;50.834;6.286;2022-11-20T13:06:13;10.20;99.90
15143;DHT22;7672;50.834;6.286;2022-11-20T13:08:54;10.20;99.90
15143;DHT22;7672;50.834;6.286;2022-11-20T13:11:34;10.30;99.90
15143;DHT22;7672;50.834;6.286;2022-11-20T13:14:16;10.30;99.90
15143;DHT22;7672;50.834;6.286;2022-11-20T13:17:14;10.40;99.90
15143;DHT22;7672;50.834;6.286;2022-11-20T13:19:56;10.50;99.90
15143;DHT22;7672;50.834;6.286;2022-11-20T13:22:42;10.60;99.90
15143;DHT22;7672;50.834;6.286;2022-11-20T13:25:35;11.10;99.90
15143;DHT22;7672;50.834;6.286;2022-11-20T13:28:26;10.70;99.90
15143;DHT22;7672;50.834;6.286;2022-11-20T13:30:56;11.10;99.90
15143;DHT22;7672;50.834;6.286;2022-11-20T13:36:04;11.70;99.90
15143;DHT22;7672;50.834;6.286;2022-11-20T13:38:53;10.90;99.90
15143;DHT22;7672;50.834;6.286;2022-11-20T13:41:37;11.60;99.90
15143;DHT22;7672;50.834;6.286;2022-11-20T14:02:15;12.30;99.90
15143;DHT22;7672;50.834;6.286;2022-11-20T14:04:49;12.70;99.90
15143;DHT22;7672;50.834;6.286;2022-11-20T14:07:23;11.50;99.90
15143;DHT22;7672;50.834;6.286;2022-11-20T14:09:55;12.30;99.90
15143;DHT22;7672;50.834;6.286;2022-11-20T14:12:29;12.50;99.90
15143;DHT22;7672;50.834;6.286;2022-11-20T14:14:58;12.90;99.90
15143;DHT22;7672;50.834;6.286;2022-11-20T14:17:32;12.90;99.90
15143;DHT22;7672;50.834;6.286;2022-11-20T14:20:04;11.80;99.90
15143;DHT22;7672;50.834;6.286;2022-11-20T14:22:36;11.80;99.90
15143;DHT22;7672;50.834;6.286;2022-11-20T14:27:44;11.80;99.90
15143;DHT22;7672;50.834;6.286;2022-11-20T14:30:42;12.50;99.90
15143;DHT22;7672;50.834;6.286;2022-11-20T14:33:15;11.80;99.90
15143;DHT22;7672;50.834;6.286;2022-11-20T14:35:54;11.00;99.90
15143;DHT22;7672;50.834;6.286;2022-11-20T14:38:29;12.10;99.90
15143;DHT22;7672;50.834;6.286;2022-11-20T14:41:28;12.50;99.90
15143;DHT22;7672;50.834;6.286;2022-11-20T14:43:59;11.60;99.90
15143;DHT22;7672;50.834;6.286;2022-11-20T14:46:30;12.80;99.90
15143;DHT22;7672;50.834;6.286;2022-11-20T14:49:01;12.30;99.90
15143;DHT22;7672;50.834;6.286;2022-11-20T14:51:36;12.40;99.90
15143;DHT22;7672;50.834;6.286;2022-11-20T14:54:19;12.40;99.90
15143;DHT22;7672;50.834;6.286;2022-11-20T14:57:00;11.30;99.90
15143;DHT22;7672;50.834;6.286;2022-11-20T14:59:34;11.20;99.90
15143;DHT22;7672;50.834;6.286;2022-11-20T15:02:08;12.00;99.90
15143;DHT22;7672;50.834;6.286;2022-11-20T15:04:56;12.20;99.90
15143;DHT22;7672;50.834;6.286;2022-11-20T15:07:28;12.00;99.90
15143;DHT22;7672;50.834;6.286;2022-11-20T15:10:10;11.70;99.90
15143;DHT22;7672;50.834;6.286;2022-11-20T15:12:53;10.90;99.90
15143;DHT22;7672;50.834;6.286;2022-11-20T15:16:02;10.80;99.90
15143;DHT22;7672;50.834;6.286;2022-11-20T15:18:42;10.70;99.90
15143;DHT22;7672;50.834;6.286;2022-11-20T15:21:31;11.40;99.90
15143;DHT22;7672;50.834;6.286;2022-11-20T15:23:58;11.70;99.90
15143;DHT22;7672;50.834;6.286;2022-11-20T15:26:27;11.10;99.90
15143;DHT22;7672;50.834;6.286;2022-11-20T15:29:14;10.90;99.90
15143;DHT22;7672;50.834;6.286;2022-11-20T15:32:07;10.30;99.90
15143;DHT22;7672;50.834;6.286;2022-11-20T15:34:39;11.50;99.90
15143;DHT22;7672;50.834;6.286;2022-11-20T15:37:06;10.20;99.90
15143;DHT22;7672;50.834;6.286;2022-11-20T15:39:33;10.10;99.90
15143;DHT22;7672;50.834;6.286;2022-11-20T15:42:00;10.10;99.90
15143;DHT22;7672;50.834;6.286;2022-11-20T15:44:27;11.40;99.90
15143;DHT22;7672;50.834;6.286;2022-11-20T15:46:54;10.80;99.90
15143;DHT22;7672;50.834;6.286;2022-11-20T15:49:21;10.80;99.90
15143;DHT22;7672;50.834;6.286;2022-11-20T15:51:50;9.90;99.90
15143;DHT22;7672;50.834;6.286;2022-11-20T15:54:21;8.90;99.90
15143;DHT22;7672;50.834;6.286;2022-11-20T15:56:49;10.10;99.90
15143;DHT22;7672;50.834;6.286;2022-11-20T15:59:18;10.00;99.90
15143;DHT22;7672;50.834;6.286;2022-11-20T16:01:45;9.80;99.90
15143;DHT22;7672;50.834;6.286;2022-11-20T16:04:15;9.70;99.90
15143;DHT22;7672;50.834;6.286;2022-11-20T16:06:43;9.70;99.90
15143;DHT22;7672;50.834;6.286;2022-11-20T16:09:13;9.70;99.90
15143;DHT22;7672;50.834;6.286;2022-11-20T16:11:40;9.60;99.90
15143;DHT22;7672;50.834;6.286;2022-11-20T16:14:10;10.40;99.90
15143;DHT22;7672;50.834;6.286;2022-11-20T16:16:56;10.20;99.90
15143;DHT22;7672;50.834;6.286;2022-11-20T16:19:28;10.40;99.90
15143;DHT22;7672;50.834;6.286;2022-11-20T16:21:57;10.20;99.90
15143;DHT22;7672;50.834;6.286;2022-11-20T16:24:28;8.20;99.90
15143;DHT22;7672;50.834;6.286;2022-11-20T16:26:56;10.20;99.90
15143;DHT22;7672;50.834;6.286;2022-11-20T16:29:23;10.30;99.90
15143;DHT22;7672;50.834;6.286;2022-11-20T16:31:50;10.70;99.90
15143;DHT22;7672;50.834;6.286;2022-11-20T16:34:18;9.50;99.90
15143;DHT22;7672;50.834;6.286;2022-11-20T16:36:45;9.40;99.90
15143;DHT22;7672;50.834;6.286;2022-11-20T16:39:12;10.60;99.90
15143;DHT22;7672;50.834;6.286;2022-11-20T16:41:49;10.30;99.90
15143;DHT22;7672;50.834;6.286;2022-11-20T16:44:19;10.80;99.90
15143;DHT22;7672;50.834;6.286;2022-11-20T16:46:48;10.40;99.90
15143;DHT22;7672;50.834;6.286;2022-11-20T16:49:15;9.50;99.90
15143;DHT22;7672;50.834;6.286;2022-11-20T16:51:43;9.90;99.90
15143;DHT22;7672;50.834;6.286;2022-11-20T16:54:10;9.50;99.90
15143;DHT22;7672;50.834;6.286;2022-11-20T16:56:45;9.50;99.90
15143;DHT22;7672;50.834;6.286;2022-11-20T16:59:13;10.10;99.90
15143;DHT22;7672;50.834;6.286;2022-11-20T17:01:40;11.00;99.90
15143;DHT22;7672;50.834;6.286;2022-11-20T17:04:08;10.60;99.90
15143;DHT22;7672;50.834;6.286;2022-11-20T17:06:41;9.60;99.90
15143;DHT22;7672;50.834;6.286;2022-11-20T17:09:13;11.00;99.90
15143;DHT22;7672;50.834;6.286;2022-11-20T17:11:40;9.60;99.90
15143;DHT22;7672;50.834;6.286;2022-11-20T17:14:07;10.50;99.90
15143;DHT22;7672;50.834;6.286;2022-11-20T17:16:38;10.40;99.90
15143;DHT22;7672;50.834;6.286;2022-11-20T17:19:05;10.60;99.90
15143;DHT22;7672;50.834;6.286;2022-11-20T17:21:33;9.50;99.90
15143;DHT22;7672;50.834;6.286;2022-11-20T17:24:03;9.70;99.90
15143;DHT22;7672;50.834;6.286;2022-11-20T17:26:33;9.70;99.90
15143;DHT22;7672;50.834;6.286;2022-11-20T17:29:03;9.70;99.90
15143;DHT22;7672;50.834;6.286;2022-11-20T17:31:33;9.90;99.90
15143;DHT22;7672;50.834;6.286;2022-11-20T17:34:01;10.40;99.90
15143;DHT22;7672;50.834;6.286;2022-11-20T17:36:28;10.20;99.90
15143;DHT22;7672;50.834;6.286;2022-11-20T17:38:56;10.80;99.90
15143;DHT22;7672;50.834;6.286;2022-11-20T17:41:26;9.80;99.90
15143;DHT22;7672;50.834;6.286;2022-11-20T17:43:58;10.80;99.90
15143;DHT22;7672;50.834;6.286;2022-11-20T17:46:29;9.90;99.90
15143;DHT22;7672;50.834;6.286;2022-11-20T17:48:59;9.80;99.90
15143;DHT22;7672;50.834;6.286;2022-11-20T17:51:29;10.30;99.90
15143;DHT22;7672;50.834;6.286;2022-11-20T17:53:59;10.60;99.90
15143;DHT22;7672;50.834;6.286;2022-11-20T17:56:33;8.80;99.90
15143;DHT22;7672;50.834;6.286;2022-11-20T17:59:20;10.00;99.90
15143;DHT22;7672;50.834;6.286;2022-11-20T18:01:47;10.00;99.90
15143;DHT22;7672;50.834;6.286;2022-11-20T18:04:15;10.40;99.90
15143;DHT22;7672;50.834;6.286;2022-11-20T18:06:42;10.70;99.90
15143;DHT22;7672;50.834;6.286;2022-11-20T18:09:09;10.90;99.90
15143;DHT22;7672;50.834;6.286;2022-11-20T18:11:39;11.10;99.90
15143;DHT22;7672;50.834;6.286;2022-11-20T18:14:11;10.10;99.90
15143;DHT22;7672;50.834;6.286;2022-11-20T18:17:03;10.50;99.90
15143;DHT22;7672;50.834;6.286;2022-11-20T18:19:35;10.20;99.90
15143;DHT22;7672;50.834;6.286;2022-11-20T18:22:12;11.00;99.90
15143;DHT22;7672;50.834;6.286;2022-11-20T18:24:39;11.50;99.90
15143;DHT22;7672;50.834;6.286;2022-11-20T18:27:19;10.20;99.90
15143;DHT22;7672;50.834;6.286;2022-11-20T18:29:47;10.10;99.90
15143;DHT22;7672;50.834;6.286;2022-11-20T18:32:19;11.20;99.90